• Join FlightAware (Why Join?)
  • Login
  • US Flag 
09:13PM EDT


 

Airport Tracker/Info


-or-


 

Live Flight TrackerFlight Track Log ✈ KAP927 ✈ 03-Jul-2013 ✈ KOGS - KALB

Flight Track Log - Related Links

Times and Time Zones

All times are in EDT time to prevent confusion due to time zone crossing. See the KAP927 flight status page for this flight to view local times or setup timezone preferences in your user account.

Time Position Orientation Groundspeed Altitude Reporting Facility
EDT Latitude Longitude Course Direction KTS MPH feet Rate Location/Type
05:07PM 44.5506 -75.3153 149° Southeast 155 178 4,000  Level Boston Center
05:08PM 44.5219 -75.2908 149° Southeast 134 154 4,600 540 Climbing Boston Center
05:09PM 44.4914 -75.2631 147° Southeast 134 154 5,100 540 Climbing Boston Center
05:10PM 44.4608 -75.2353 147° Southeast 134 154 5,700 600 Climbing Boston Center
05:11PM 44.4281 -75.2047 146° Southeast 134 154 6,300 540 Climbing Boston Center
05:12PM 44.4902 -75.2947 149° Southeast  Level Estimated
05:12PM 44.3978 -75.1742 144° Southeast 140 161 6,800  Level Boston Center
05:13PM 44.3631 -75.1436 148° Southeast 140 161 7,400 540 Climbing Boston Center
05:14PM 44.3281 -75.1217 156° South 140 161 7,900 480 Climbing Boston Center
05:15PM 44.2933 -75.0942 150° Southeast 140 161 8,400 480 Climbing Boston Center
05:16PM 44.2564 -75.0664 152° Southeast 140 161 8,900 300 Climbing Boston Center
05:17PM 44.2197 -75.0328 147° Southeast 145 167 9,000  Climbing Boston Center
05:18PM 44.1808 -74.9992 148° Southeast 157 181 9,000  Level Boston Center
05:19PM 44.1400 -74.9628 147° Southeast 162 186 9,000  Level Boston Center
05:20PM 44.0928 -74.9233 149° Southeast 167 192 9,000  Level Boston Center
05:21PM 44.0539 -74.8897 148° Southeast 167 192 9,000  Level Boston Center
05:22PM 44.0233 -74.8625 147° Southeast 167 192 9,000  Level Boston Center
05:23PM 43.9761 -74.8231 149° Southeast 167 192 9,000  Level Boston Center
05:24PM 43.9372 -74.7900 149° Southeast 167 192 9,000  Level Boston Center
05:25PM 43.8961 -74.7594 152° Southeast 167 192 9,000  Level Boston Center
05:26PM 43.8572 -74.7264 148° Southeast 167 192 9,000  Level Boston Center
05:27PM 43.8183 -74.6903 146° Southeast 167 192 9,000  Level Boston Center
05:28PM 43.7772 -74.6572 150° Southeast 167 192 9,000  Level Boston Center
05:29PM 43.7342 -74.6181 147° Southeast 167 192 9,000  Level Boston Center
05:30PM 43.6933 -74.5850 150° Southeast 167 192 9,000  Level Boston Center
05:31PM 43.6522 -74.5492 148° Southeast 167 192 9,000  Level Boston Center
05:32PM 43.6133 -74.5164 149° Southeast 167 192 9,000  Level Boston Center
05:33PM 43.5722 -74.4861 152° Southeast 167 192 9,000  Level Boston Center
05:34PM 43.5331 -74.4506 147° Southeast 167 192 9,000  Level Boston Center
05:35PM 43.4942 -74.4178 149° Southeast 167 192 9,000  Level Boston Center
05:36PM 43.4550 -74.3850 149° Southeast 167 192 9,000  Level Boston Center
05:37PM 43.4264 -74.3611 149° Southeast 170 196 9,000  Level Boston Center
05:38PM 43.3914 -74.3317 149° Southeast 169 194 9,000  Level Boston Center
05:39PM 43.3522 -74.2989 149° Southeast 165 190 9,000  Level Boston Center
05:40PM 43.3092 -74.2633 149° Southeast 167 192 9,000  Level Boston Center
05:41PM 43.2658 -74.2308 151° Southeast 168 193 9,000  Level Boston Center
05:42PM 43.2331 -74.1869 136° Southeast 169 194 9,000 -120 Level Boston Center
05:43PM 43.1881 -74.1372 141° Southeast 172 198 8,800 -420 Descending Boston Center
05:44PM 43.1594 -74.0994 136° Southeast 183 211 8,300 -660 Descending Boston Center
05:45PM 43.1183 -74.0528 140° Southeast 199 229 7,700 -780 Descending Boston Center
05:46PM 43.0733 -73.9978 138° Southeast 203 234 6,800 -780 Descending Boston Center
05:47PM 43.0261 -73.9369 137° Southeast 202 232 6,000 -660 Descending Boston Center
05:48PM 42.9831 -73.8875 140° Southeast 195 224 5,400 -720 Descending Boston Center
05:49PM 42.9400 -73.8411 142° Southeast 190 219 4,600 -900 Descending Boston Center
05:50PM 42.8881 -73.8172 161° South 181 208 3,600 -780 Descending Boston Center
05:51PM 42.8467 -73.7936 157° South 171 197 3,100 -1,140 Descending Boston Center
05:52PM 42.7986 -73.8097 194° South 140 161 1,400 -1,320 Descending Boston Center
05:53PM 42.7653 -73.8061 175° South 117 135 500 -900 Descending Boston Center
05:55PM 42.7491 -73.8020 160° South  Level Estimated
06:02PM 42.7491 -73.8020 160° South  Level Estimated
06:03PM 42.7491 -73.8020 160° South  Level Estimated
06:04PM 42.7491 -73.8020 160° South  Level Estimated